Avery Island, Louisiana
Current Conditions -  °F | °C
As of 12:53 PM on Sunday 23 Nov 2014 (Local Time) from KARA Reporting Station
Light Rain Light Rain  
Wind Chill: 74°   Ceiling: Unl
Heat Index: 74°   Visibility: 10mi
Dew Point: 61°   Wind: 21mph
Humidity: 64%   Direction: 240°WSW
Pressure: 29.64"   Gusts: 30mph
Location:  29.91°N, 91.91°W
Report Text: KARA 231853Z 24018G26KT 10SM -RA FEW029 FEW038 23/16 A2964 RMK AO2 PK WND 22028/1831 SLP038 P0000 T02330161
Loading
Personal Weather Stations






























Interactive Weather Map New forecast layout! Learn more

10-Day Weather Forecast

Advertisements
Track Severe Weather on mobile